Terminal Aerodrome Forecast
Issued by NWS

Current Version | Previous Version | Graphics & Text | Print | Product List | Glossary On
Versions: 1 2 3 4 5 6 7 8 9 10 11 12 13 14 15 16 17 18 19
000
FTUS41 KPBZ 182300
TAFMGW
TAF
KMGW 182320Z 1900/1924 25008KT P6SM SCT045
     FM190200 24010G16KT P6SM BKN045
     FM191300 21008KT P6SM FEW035 BKN100
     FM191800 17011G18KT P6SM BKN080 OVC100=

USA.gov is the U.S. government's official web portal to all federal, state and local government web resources and services.